createdAt,value
2023-04-09T00:03:34.358Z,2.60
2023-04-09T00:06:01.689Z,2.92
2023-04-09T00:08:28.555Z,3.02
2023-04-09T00:10:55.692Z,3.25
2023-04-09T00:13:31.960Z,3.27
2023-04-09T00:16:05.780Z,3.34
2023-04-09T00:18:34.013Z,3.23
2023-04-09T00:21:00.848Z,3.36
2023-04-09T00:23:27.526Z,3.29
2023-04-09T00:25:54.275Z,3.39
2023-04-09T00:28:21.073Z,3.47
2023-04-09T00:30:48.029Z,3.51
2023-04-09T00:33:14.974Z,3.46
2023-04-09T00:35:42.044Z,3.41
2023-04-09T00:38:09.062Z,3.44
2023-04-09T00:40:36.030Z,3.41
2023-04-09T00:43:03.011Z,3.68
2023-04-09T00:45:30.044Z,3.54
2023-04-09T00:47:56.903Z,3.57
2023-04-09T00:50:24.362Z,3.58
2023-04-09T00:52:52.003Z,3.00
2023-04-09T00:55:19.229Z,2.73
2023-04-09T00:57:47.100Z,3.14
2023-04-09T01:00:14.502Z,2.95
2023-04-09T01:02:42.173Z,2.41
2023-04-09T01:05:10.081Z,2.02
2023-04-09T01:07:39.895Z,2.38
2023-04-09T01:10:26.959Z,2.21
2023-04-09T01:13:18.882Z,1.88
2023-04-09T01:15:57.293Z,1.90
2023-04-09T01:18:40.372Z,2.20
2023-04-09T01:21:12.178Z,1.93
2023-04-09T01:24:04.616Z,2.22
2023-04-09T01:26:48.440Z,2.16
2023-04-09T01:29:18.458Z,2.58
2023-04-09T01:31:46.907Z,2.28
2023-04-09T01:34:15.123Z,2.91
2023-04-09T01:36:47.831Z,2.87
2023-04-09T01:39:14.956Z,2.75
2023-04-09T01:41:42.663Z,2.23
2023-04-09T01:44:12.615Z,2.08
2023-04-09T01:46:40.690Z,2.28
2023-04-09T01:49:07.883Z,2.13
2023-04-09T01:51:38.380Z,2.39
2023-04-09T01:54:05.942Z,2.18
2023-04-09T01:56:43.542Z,1.96
2023-04-09T01:59:11.937Z,1.43
2023-04-09T02:01:58.488Z,2.01
2023-04-09T02:04:37.198Z,2.99
2023-04-09T02:07:29.925Z,2.39
2023-04-09T02:10:01.879Z,2.11
2023-04-09T02:12:31.777Z,1.83
2023-04-09T02:15:01.275Z,1.98
2023-04-09T02:17:28.466Z,2.89
2023-04-09T02:19:55.495Z,2.48
2023-04-09T02:22:23.092Z,2.10
2023-04-09T02:24:50.084Z,2.43
2023-04-09T02:27:18.043Z,2.23
2023-04-09T02:29:45.361Z,2.26
2023-04-09T02:32:13.435Z,2.63
2023-04-09T02:34:40.673Z,2.92
2023-04-09T02:37:07.573Z,3.20
2023-04-09T02:39:34.495Z,3.07
2023-04-09T02:42:02.329Z,2.71
2023-04-09T02:44:29.481Z,2.77
2023-04-09T02:46:57.267Z,2.73
2023-04-09T02:49:24.306Z,2.29
2023-04-09T02:51:51.610Z,3.12
2023-04-09T02:54:18.934Z,2.41
2023-04-09T02:56:45.841Z,2.06
2023-04-09T02:59:12.666Z,2.22
2023-04-09T03:01:39.933Z,2.17
2023-04-09T03:04:07.301Z,2.23
2023-04-09T03:06:39.141Z,2.22
2023-04-09T03:09:06.624Z,2.47
2023-04-09T03:11:37.333Z,2.61
2023-04-09T03:14:05.401Z,2.63
2023-04-09T03:16:32.609Z,2.57
2023-04-09T03:19:02.230Z,3.20
2023-04-09T03:21:35.258Z,2.86
2023-04-09T03:24:02.819Z,2.55
2023-04-09T03:26:36.264Z,2.51
2023-04-09T03:29:06.540Z,2.42
2023-04-09T03:31:34.355Z,1.90
2023-04-09T03:34:01.166Z,1.99
2023-04-09T03:36:34.501Z,2.42
2023-04-09T03:39:03.398Z,2.46
2023-04-09T03:41:39.486Z,2.47
2023-04-09T03:44:11.176Z,2.46
2023-04-09T03:46:52.492Z,2.29
2023-04-09T03:49:19.939Z,2.52
2023-04-09T03:51:46.699Z,2.59
2023-04-09T03:54:13.722Z,2.77
2023-04-09T03:56:41.482Z,2.45
2023-04-09T03:59:11.716Z,2.82
2023-04-09T04:01:41.575Z,3.06
2023-04-09T04:04:09.218Z,3.21
2023-04-09T04:06:41.361Z,3.50
2023-04-09T04:09:26.506Z,3.71
2023-04-09T04:12:02.453Z,3.70
2023-04-09T04:14:47.903Z,3.84
2023-04-09T04:17:35.567Z,3.48
2023-04-09T04:20:06.467Z,3.39
2023-04-09T04:22:39.421Z,3.10
2023-04-09T04:25:07.018Z,2.51
2023-04-09T04:27:34.082Z,2.68
2023-04-09T04:30:02.484Z,2.93
2023-04-09T04:32:40.600Z,3.04
2023-04-09T04:35:11.356Z,3.45
2023-04-09T04:37:40.607Z,3.52
2023-04-09T04:40:13.771Z,3.28
2023-04-09T04:42:42.764Z,2.67
2023-04-09T04:45:14.205Z,2.56
2023-04-09T04:47:46.426Z,2.47
2023-04-09T04:50:15.511Z,2.40
2023-04-09T04:53:02.965Z,2.20
2023-04-09T04:55:42.242Z,1.97
2023-04-09T04:58:15.340Z,1.80
2023-04-09T05:00:47.906Z,1.75
2023-04-09T05:03:15.389Z,2.78
2023-04-09T05:05:59.903Z,2.12
2023-04-09T05:08:32.055Z,2.24
2023-04-09T05:10:59.112Z,3.20
2023-04-09T05:13:36.396Z,3.50
2023-04-09T05:16:07.394Z,3.17
2023-04-09T05:18:37.350Z,3.12
2023-04-09T05:21:04.694Z,3.11
2023-04-09T05:23:34.599Z,2.92
2023-04-09T05:26:01.579Z,2.93
2023-04-09T05:28:59.055Z,3.60
2023-04-09T05:31:26.961Z,3.69
2023-04-09T05:33:59.384Z,3.54
2023-04-09T05:36:37.896Z,2.90
2023-04-09T05:39:05.119Z,2.66
2023-04-09T05:41:34.526Z,2.57
2023-04-09T05:44:37.088Z,2.78
2023-04-09T05:47:10.787Z,2.98
2023-04-09T05:50:01.104Z,3.01
2023-04-09T05:52:28.738Z,3.02
2023-04-09T05:54:56.379Z,3.50
2023-04-09T05:57:31.877Z,3.25
2023-04-09T06:00:02.470Z,3.11
2023-04-09T06:02:31.972Z,2.57
2023-04-09T06:05:00.561Z,2.83
2023-04-09T06:07:27.685Z,2.76
2023-04-09T06:09:56.487Z,3.53
2023-04-09T06:12:23.402Z,3.46
2023-04-09T06:14:50.443Z,3.27
2023-04-09T06:17:17.508Z,3.21
2023-04-09T06:19:44.459Z,3.09
2023-04-09T06:22:11.372Z,3.30
2023-04-09T06:24:39.440Z,2.93
2023-04-09T06:27:08.110Z,3.54
2023-04-09T06:29:35.098Z,3.52
2023-04-09T06:32:02.069Z,3.81
2023-04-09T06:34:28.957Z,3.81
2023-04-09T06:36:56.646Z,3.64
2023-04-09T06:39:23.711Z,4.13
2023-04-09T06:41:50.893Z,4.18
2023-04-09T06:44:34.746Z,3.99
2023-04-09T06:47:02.625Z,3.40
2023-04-09T06:49:29.587Z,3.77
2023-04-09T06:51:56.438Z,3.49
2023-04-09T06:54:23.104Z,3.54
2023-04-09T06:56:49.672Z,3.74
2023-04-09T06:59:16.996Z,3.86
2023-04-09T07:01:44.069Z,4.20
2023-04-09T07:04:16.522Z,4.41
2023-04-09T07:06:44.107Z,4.40
2023-04-09T07:09:13.132Z,4.53
2023-04-09T07:11:40.536Z,4.55
2023-04-09T07:14:07.943Z,4.74
2023-04-09T07:16:35.127Z,4.42
2023-04-09T07:19:03.823Z,4.40
2023-04-09T07:21:32.657Z,4.73
2023-04-09T07:23:59.650Z,4.40
2023-04-09T07:26:29.414Z,4.90
2023-04-09T07:28:56.271Z,4.35
2023-04-09T07:31:23.480Z,4.80
2023-04-09T07:33:54.157Z,5.16
2023-04-09T07:36:21.645Z,5.14
2023-04-09T07:38:48.920Z,5.05
2023-04-09T07:41:16.425Z,4.91
2023-04-09T07:43:44.283Z,5.22
2023-04-09T07:46:11.959Z,4.50
2023-04-09T07:48:40.428Z,4.66
2023-04-09T07:51:08.802Z,5.39
2023-04-09T07:53:35.984Z,5.41
2023-04-09T07:56:03.373Z,5.66
2023-04-09T07:58:31.034Z,5.79
2023-04-09T08:00:59.974Z,5.90
2023-04-09T08:03:27.717Z,5.44
2023-04-09T08:05:54.909Z,4.60
2023-04-09T08:08:22.551Z,5.40
2023-04-09T08:10:49.337Z,4.65
2023-04-09T08:13:16.522Z,4.70
2023-04-09T08:15:43.660Z,5.22
2023-04-09T08:18:10.663Z,5.57
2023-04-09T08:20:38.196Z,5.00
2023-04-09T08:23:05.013Z,5.83
2023-04-09T08:25:32.398Z,6.16
2023-04-09T08:27:59.270Z,6.50
2023-04-09T08:30:26.292Z,5.98
2023-04-09T08:32:54.207Z,6.81
2023-04-09T08:35:21.203Z,7.01
2023-04-09T08:37:49.037Z,7.10
2023-04-09T08:40:15.998Z,7.28
2023-04-09T08:42:48.623Z,7.45
2023-04-09T08:45:15.752Z,7.00
2023-04-09T08:47:45.680Z,6.21
2023-04-09T08:50:14.522Z,6.70
2023-04-09T08:52:42.774Z,7.46
2023-04-09T08:55:12.048Z,6.85
2023-04-09T08:57:40.092Z,7.68
2023-04-09T09:00:09.945Z,7.96
2023-04-09T09:02:39.430Z,8.34
2023-04-09T09:05:09.141Z,8.02
2023-04-09T09:07:39.065Z,8.40
2023-04-09T09:10:07.270Z,8.17
2023-04-09T09:12:42.017Z,7.82
2023-04-09T09:15:28.801Z,8.31
2023-04-09T09:18:00.952Z,9.04
2023-04-09T09:20:28.034Z,9.56
2023-04-09T09:22:57.034Z,9.15
2023-04-09T09:25:25.699Z,9.09
2023-04-09T09:27:54.261Z,10.21
2023-04-09T09:30:22.525Z,9.76
2023-04-09T09:33:07.144Z,9.79
2023-04-09T09:36:09.477Z,9.59
2023-04-09T09:38:55.279Z,9.19
2023-04-09T09:41:23.405Z,9.97
2023-04-09T09:43:50.903Z,9.39
2023-04-09T09:46:17.820Z,9.94
2023-04-09T09:48:47.996Z,10.08
2023-04-09T09:51:15.544Z,10.05
2023-04-09T09:53:46.608Z,9.47
2023-04-09T09:56:18.557Z,9.92
2023-04-09T09:59:04.332Z,10.36
2023-04-09T10:01:31.420Z,10.22
2023-04-09T10:04:01.530Z,10.69
2023-04-09T10:06:30.216Z,10.64
2023-04-09T10:08:58.366Z,10.62
2023-04-09T10:11:25.878Z,10.54
2023-04-09T10:13:59.700Z,10.60
2023-04-09T10:16:28.156Z,10.90
2023-04-09T10:18:59.895Z,10.99
2023-04-09T10:21:47.729Z,11.02
2023-04-09T10:24:16.086Z,11.40
2023-04-09T10:26:45.152Z,11.25
2023-04-09T10:29:14.695Z,11.43
2023-04-09T10:32:06.807Z,11.26
2023-04-09T10:34:42.837Z,10.95
2023-04-09T10:37:15.130Z,10.77
2023-04-09T10:39:44.790Z,10.90
2023-04-09T10:42:25.658Z,10.77
2023-04-09T10:45:16.952Z,10.82
2023-04-09T10:47:44.262Z,11.37
2023-04-09T10:50:33.312Z,11.20
2023-04-09T10:53:00.987Z,11.03
2023-04-09T10:55:38.406Z,11.35
2023-04-09T10:58:13.628Z,11.76
2023-04-09T11:00:46.079Z,11.23
2023-04-09T11:03:31.369Z,11.25
2023-04-09T11:06:06.103Z,11.72
2023-04-09T11:08:34.215Z,11.45
2023-04-09T11:11:02.310Z,11.51
2023-04-09T11:13:31.097Z,11.94
2023-04-09T11:16:00.274Z,11.83
2023-04-09T11:18:30.758Z,10.56
2023-04-09T11:21:02.350Z,11.07
2023-04-09T11:23:29.454Z,11.25
2023-04-09T11:25:56.577Z,11.33
2023-04-09T11:28:24.130Z,11.71
2023-04-09T11:30:52.078Z,10.87
2023-04-09T11:33:20.200Z,11.09
2023-04-09T11:35:48.338Z,11.12
2023-04-09T11:38:15.685Z,11.10
2023-04-09T11:40:48.083Z,11.26
2023-04-09T11:43:16.884Z,11.24
2023-04-09T11:45:44.935Z,9.96
2023-04-09T11:48:13.214Z,10.81
2023-04-09T11:50:40.740Z,10.99
2023-04-09T11:53:21.625Z,10.71
2023-04-09T11:55:51.461Z,10.67
2023-04-09T11:58:18.724Z,10.85
2023-04-09T12:00:45.794Z,10.98
2023-04-09T12:03:13.598Z,11.23
2023-04-09T12:05:50.811Z,10.71
2023-04-09T12:08:23.824Z,10.53
2023-04-09T12:10:53.655Z,10.64
2023-04-09T12:13:21.609Z,10.40
2023-04-09T12:15:50.121Z,9.89
2023-04-09T12:18:16.920Z,10.03
2023-04-09T12:20:46.608Z,9.67
2023-04-09T12:23:13.855Z,9.66
2023-04-09T12:25:42.972Z,9.17
2023-04-09T12:28:13.023Z,9.68
2023-04-09T12:30:40.707Z,9.62
2023-04-09T12:33:10.206Z,9.75
2023-04-09T12:35:39.557Z,9.13
2023-04-09T12:38:07.382Z,8.92
2023-04-09T12:40:35.652Z,9.38
2023-04-09T12:43:03.162Z,9.52
2023-04-09T12:45:30.539Z,9.55
2023-04-09T12:47:58.361Z,9.53
2023-04-09T12:50:26.008Z,9.72
2023-04-09T12:52:54.065Z,10.21
2023-04-09T12:55:22.216Z,9.48
2023-04-09T12:57:50.901Z,9.87
2023-04-09T13:00:18.652Z,10.39
2023-04-09T13:02:45.837Z,10.24
2023-04-09T13:05:13.484Z,9.71
2023-04-09T13:07:43.233Z,9.96
2023-04-09T13:10:11.499Z,9.78
2023-04-09T13:12:38.786Z,10.10
2023-04-09T13:15:06.862Z,10.22
2023-04-09T13:17:33.913Z,9.73
2023-04-09T13:20:01.722Z,10.06
2023-04-09T13:22:28.863Z,10.09
2023-04-09T13:24:55.795Z,10.41
2023-04-09T13:27:23.010Z,10.37
2023-04-09T13:29:50.841Z,10.69
2023-04-09T13:32:19.007Z,10.61
2023-04-09T13:34:46.728Z,10.34
2023-04-09T13:37:14.066Z,10.57
2023-04-09T13:39:41.086Z,10.49
2023-04-09T13:42:13.562Z,10.68
2023-04-09T13:44:44.772Z,10.75
2023-04-09T13:47:13.641Z,10.73
2023-04-09T13:49:43.916Z,10.88
2023-04-09T13:52:11.976Z,10.94
2023-04-09T13:54:38.798Z,10.51
2023-04-09T13:57:08.685Z,10.30
2023-04-09T13:59:36.589Z,10.57
2023-04-09T14:02:04.233Z,10.81
2023-04-09T14:04:31.683Z,10.83
2023-04-09T14:06:58.477Z,10.74
2023-04-09T14:09:25.574Z,10.77
2023-04-09T14:11:54.334Z,10.73
2023-04-09T14:14:21.570Z,10.77
2023-04-09T14:16:48.597Z,10.74
2023-04-09T14:19:15.862Z,10.78
2023-04-09T14:21:42.740Z,10.82
2023-04-09T14:24:09.847Z,10.60
2023-04-09T14:26:37.643Z,10.67
2023-04-09T14:29:04.579Z,10.51
2023-04-09T14:31:31.710Z,10.62
2023-04-09T14:33:58.762Z,10.57
2023-04-09T14:36:27.474Z,10.84
2023-04-09T14:38:56.240Z,10.63
2023-04-09T14:41:24.811Z,10.86
2023-04-09T14:43:51.530Z,10.56
2023-04-09T14:46:18.277Z,10.69
2023-04-09T14:48:45.993Z,10.12
2023-04-09T14:51:13.190Z,10.63
2023-04-09T14:53:40.060Z,10.58
2023-04-09T14:56:07.274Z,10.22
2023-04-09T14:58:34.205Z,10.55
2023-04-09T15:01:01.214Z,10.77
2023-04-09T15:03:28.470Z,10.82
2023-04-09T15:05:55.750Z,11.10
2023-04-09T15:08:23.715Z,11.05
2023-04-09T15:10:51.288Z,10.76
2023-04-09T15:13:18.124Z,10.98
2023-04-09T15:15:45.428Z,11.00
2023-04-09T15:18:13.030Z,10.71
2023-04-09T15:20:41.850Z,10.40
2023-04-09T15:23:09.782Z,10.71
2023-04-09T15:25:37.555Z,10.60
2023-04-09T15:28:06.240Z,10.75
2023-04-09T15:30:33.432Z,10.70
2023-04-09T15:33:01.643Z,10.34
2023-04-09T15:35:29.499Z,10.67
2023-04-09T15:37:57.282Z,10.66
2023-04-09T15:40:24.484Z,10.64
2023-04-09T15:42:51.522Z,10.85
2023-04-09T15:45:18.599Z,10.65
2023-04-09T15:47:46.167Z,10.35
2023-04-09T15:50:22.682Z,10.48
2023-04-09T15:52:50.622Z,10.45
2023-04-09T15:55:17.776Z,10.62
2023-04-09T15:57:47.337Z,10.63
2023-04-09T16:00:15.703Z,10.48
2023-04-09T16:02:47.399Z,10.00
2023-04-09T16:05:15.644Z,10.32
2023-04-09T16:07:42.968Z,10.53
2023-04-09T16:10:11.181Z,10.48
2023-04-09T16:12:38.440Z,10.38
2023-04-09T16:15:06.065Z,10.48
2023-04-09T16:17:40.295Z,10.35
2023-04-09T16:20:08.553Z,10.06
2023-04-09T16:22:45.033Z,9.62
2023-04-09T16:25:12.944Z,9.85
2023-04-09T16:27:40.915Z,10.16
2023-04-09T16:30:08.088Z,10.20
2023-04-09T16:32:35.006Z,10.28
2023-04-09T16:35:02.471Z,10.05
2023-04-09T16:37:31.236Z,10.23
2023-04-09T16:39:58.141Z,10.16
2023-04-09T16:42:27.704Z,10.09
2023-04-09T16:44:54.843Z,9.86
2023-04-09T16:47:22.392Z,9.72
2023-04-09T16:49:49.136Z,9.90
2023-04-09T16:52:16.461Z,9.96
2023-04-09T16:54:43.419Z,9.85
2023-04-09T16:57:10.362Z,9.79
2023-04-09T16:59:37.605Z,9.78
2023-04-09T17:02:04.779Z,9.82
2023-04-09T17:04:34.350Z,9.89
2023-04-09T17:07:01.731Z,9.81
2023-04-09T17:09:28.566Z,9.79
2023-04-09T17:11:56.638Z,9.70
2023-04-09T17:14:23.954Z,9.55
2023-04-09T17:16:53.130Z,9.60
2023-04-09T17:19:20.102Z,9.58
2023-04-09T17:21:47.027Z,9.64
2023-04-09T17:24:13.941Z,9.45
2023-04-09T17:26:40.836Z,9.43
2023-04-09T17:29:07.752Z,9.37
2023-04-09T17:31:34.680Z,9.50
2023-04-09T17:34:02.213Z,9.38
2023-04-09T17:36:29.385Z,9.34
2023-04-09T17:38:56.740Z,9.30
2023-04-09T17:41:24.404Z,9.29
2023-04-09T17:43:51.576Z,9.19
2023-04-09T17:46:18.516Z,8.80
2023-04-09T17:48:45.538Z,8.94
2023-04-09T17:51:19.662Z,9.03
2023-04-09T17:53:47.493Z,9.04
2023-04-09T17:56:16.886Z,8.99
2023-04-09T17:58:44.400Z,8.55
2023-04-09T18:01:13.633Z,7.43
2023-04-09T18:03:42.718Z,7.34
2023-04-09T18:06:10.041Z,7.23
2023-04-09T18:08:37.763Z,7.18
2023-04-09T18:11:12.618Z,7.10
2023-04-09T18:13:40.447Z,7.39
2023-04-09T18:16:12.380Z,7.36
2023-04-09T18:18:39.563Z,7.27
2023-04-09T18:21:07.202Z,7.46
2023-04-09T18:23:34.752Z,7.16
2023-04-09T18:26:03.140Z,7.26
2023-04-09T18:28:30.309Z,7.50
2023-04-09T18:30:57.848Z,7.26
2023-04-09T18:33:25.919Z,7.56
2023-04-09T18:35:53.203Z,7.58
2023-04-09T18:38:21.887Z,7.60
2023-04-09T18:40:48.717Z,7.69
2023-04-09T18:43:15.605Z,7.77
2023-04-09T18:45:42.604Z,7.52
2023-04-09T18:48:10.005Z,7.54
2023-04-09T18:50:37.128Z,7.53
2023-04-09T18:53:06.068Z,7.41
2023-04-09T18:55:37.861Z,7.59
2023-04-09T18:58:08.755Z,7.77
2023-04-09T19:00:36.289Z,7.82
2023-04-09T19:03:03.415Z,7.87
2023-04-09T19:05:31.852Z,7.89
2023-04-09T19:08:03.271Z,7.88
2023-04-09T19:10:30.340Z,7.88
2023-04-09T19:12:57.088Z,7.85
2023-04-09T19:15:26.405Z,7.77
2023-04-09T19:17:53.826Z,7.67
2023-04-09T19:20:22.144Z,7.46
2023-04-09T19:22:50.412Z,7.36
2023-04-09T19:25:18.474Z,7.43
2023-04-09T19:27:45.721Z,7.58
2023-04-09T19:30:13.252Z,7.56
2023-04-09T19:32:41.781Z,7.50
2023-04-09T19:35:08.842Z,7.44
2023-04-09T19:37:36.173Z,7.62
2023-04-09T19:40:04.699Z,7.46
2023-04-09T19:42:35.330Z,7.33
2023-04-09T19:45:02.521Z,7.20
2023-04-09T19:47:29.757Z,7.28
2023-04-09T19:49:56.570Z,7.40
2023-04-09T19:52:23.563Z,7.44
2023-04-09T19:54:54.791Z,7.40
2023-04-09T19:57:22.085Z,7.48
2023-04-09T19:59:49.969Z,7.49
2023-04-09T20:02:17.298Z,7.21
2023-04-09T20:04:48.017Z,7.25
2023-04-09T20:07:15.702Z,7.32
2023-04-09T20:09:43.610Z,7.45
2023-04-09T20:12:10.777Z,7.38
2023-04-09T20:14:40.853Z,7.41
2023-04-09T20:17:09.790Z,7.49
2023-04-09T20:19:37.947Z,7.48
2023-04-09T20:22:05.019Z,7.51
2023-04-09T20:24:32.355Z,7.49
2023-04-09T20:26:59.690Z,7.52
2023-04-09T20:29:26.690Z,7.35
2023-04-09T20:31:53.696Z,7.37
2023-04-09T20:34:26.597Z,7.34
2023-04-09T20:36:54.821Z,7.47
2023-04-09T20:39:22.351Z,7.49
2023-04-09T20:41:49.384Z,7.50
2023-04-09T20:44:16.689Z,7.49
2023-04-09T20:46:43.519Z,7.54
2023-04-09T20:49:11.206Z,7.53
2023-04-09T20:51:38.624Z,7.45
2023-04-09T20:54:05.605Z,7.46
2023-04-09T20:56:32.830Z,7.54
2023-04-09T20:59:00.164Z,7.55
2023-04-09T21:01:27.776Z,7.49
2023-04-09T21:03:55.040Z,7.48
2023-04-09T21:06:22.692Z,7.48
2023-04-09T21:08:49.750Z,7.45
2023-04-09T21:11:16.759Z,7.53
2023-04-09T21:13:53.592Z,7.50
2023-04-09T21:16:21.868Z,7.57
2023-04-09T21:18:49.037Z,7.36
2023-04-09T21:21:16.072Z,7.20
2023-04-09T21:23:43.497Z,7.32
2023-04-09T21:26:11.526Z,7.45
2023-04-09T21:28:39.278Z,7.36
2023-04-09T21:31:06.518Z,7.38
2023-04-09T21:33:33.813Z,7.48
2023-04-09T21:36:01.591Z,7.40
2023-04-09T21:38:28.412Z,7.29
2023-04-09T21:40:55.468Z,7.25
2023-04-09T21:43:22.229Z,7.22
2023-04-09T21:45:49.199Z,7.30
2023-04-09T21:48:16.200Z,7.31
2023-04-09T21:50:42.962Z,7.14
2023-04-09T21:53:09.800Z,7.13
2023-04-09T21:55:37.206Z,7.28
2023-04-09T21:58:03.994Z,7.19
2023-04-09T22:00:31.358Z,7.30
2023-04-09T22:03:02.148Z,7.33
2023-04-09T22:05:29.740Z,7.28
2023-04-09T22:07:56.497Z,7.24
2023-04-09T22:10:23.487Z,7.29
2023-04-09T22:12:50.658Z,7.28
2023-04-09T22:15:17.562Z,7.30
2023-04-09T22:17:44.471Z,7.37
2023-04-09T22:20:11.424Z,7.29
2023-04-09T22:22:38.579Z,7.30
2023-04-09T22:25:07.080Z,7.07
2023-04-09T22:27:34.196Z,6.95
2023-04-09T22:30:01.033Z,6.97
2023-04-09T22:32:28.887Z,7.06
2023-04-09T22:34:55.690Z,7.13
2023-04-09T22:37:22.407Z,7.04
2023-04-09T22:39:49.268Z,6.87
2023-04-09T22:42:16.187Z,6.60
2023-04-09T22:44:42.880Z,6.85
2023-04-09T22:47:09.556Z,6.67
2023-04-09T22:49:36.517Z,7.01
2023-04-09T22:52:03.310Z,6.98
2023-04-09T22:54:30.170Z,6.57
2023-04-09T22:56:57.872Z,6.80
2023-04-09T22:59:30.475Z,6.87
2023-04-09T23:02:06.050Z,6.80
2023-04-09T23:04:34.190Z,6.60
2023-04-09T23:07:01.106Z,6.51
2023-04-09T23:09:28.035Z,6.61
2023-04-09T23:11:54.790Z,6.69
2023-04-09T23:14:21.563Z,6.69
2023-04-09T23:16:48.123Z,6.81
2023-04-09T23:19:15.010Z,6.80
2023-04-09T23:21:41.724Z,6.83
2023-04-09T23:24:08.846Z,6.88
2023-04-09T23:26:35.635Z,6.94
2023-04-09T23:29:02.413Z,6.82
2023-04-09T23:31:29.154Z,6.73
2023-04-09T23:33:56.270Z,6.73
2023-04-09T23:36:24.355Z,6.77
2023-04-09T23:38:51.447Z,6.59
2023-04-09T23:41:18.146Z,6.25
2023-04-09T23:43:44.860Z,6.49
2023-04-09T23:46:11.494Z,6.52
2023-04-09T23:48:38.262Z,6.52
2023-04-09T23:51:05.285Z,6.34
2023-04-09T23:53:32.082Z,6.35
2023-04-09T23:55:58.798Z,6.45
2023-04-09T23:58:25.546Z,6.32
